Time;durP1;ratioP1;P1;durP2;ratioP2;P2;SDS_P1;SDS_P2;PMS_P1;PMS_P2;Temp;Humidity;BMP_temperature;BMP_pressure;BME280_temperature;BME280_humidity;BME280_pressure;Samples;Min_cycle;Max_cycle;Signal;HPM_P1;HPM_P2
2021/01/12 00:07:53;;;;;;;78;42.2;;;;;;;-7.84;82.46191;98738.56;;;;
2021/01/12 00:17:50;;;;;;;62.3;34.9;;;;;;;-7.9;81.90918;98725.43;;;;
2021/01/12 00:27:46;;;;;;;54;34.4;;;;;;;-8.02;81.05566;98721.7;;;;
2021/01/12 00:37:43;;;;;;;64.8;38.6;;;;;;;-8.19;80.95801;98723.75;;;;
2021/01/12 00:47:40;;;;;;;58.4;33.6;;;;;;;-8.25;80.22559;98722.66;;;;
2021/01/12 00:57:36;;;;;;;75.6;44.1;;;;;;;-8.43;79.86621;98726.69;;;;
2021/01/12 01:07:33;;;;;;;61.1;34.9;;;;;;;-8.63;81.78711;98709.97;;;;
2021/01/12 01:17:30;;;;;;;57.8;30.7;;;;;;;-8.63;80.57227;98695.12;;;;
2021/01/12 01:27:26;;;;;;;52.8;30.1;;;;;;;-8.53;82.56152;98689.59;;;;
2021/01/12 01:37:23;;;;;;;35.7;21.3;;;;;;;-8.32;83.13184;98672.16;;;;
2021/01/12 01:47:20;;;;;;;51.8;24.5;;;;;;;-8.09;83.30762;98653.67;;;;
2021/01/12 01:57:16;;;;;;;41.6;24;;;;;;;-8.14;82.47754;98653.41;;;;
2021/01/12 02:07:13;;;;;;;37.4;23;;;;;;;-8.13;81.49707;98646.38;;;;
2021/01/12 02:17:10;;;;;;;39.3;26.8;;;;;;;-8.22;80.38184;98625.58;;;;
2021/01/12 02:27:06;;;;;;;41.9;25.1;;;;;;;-8.45;79.95996;98624.98;;;;
2021/01/12 02:37:03;;;;;;;51.9;35.1;;;;;;;-8.57;79.28027;98602.94;;;;
2021/01/12 02:47:00;;;;;;;50.3;28.8;;;;;;;-8.89;79.81152;98579.91;;;;
2021/01/12 02:56:56;;;;;;;47.9;25.3;;;;;;;-8.97;79.74219;98561.73;;;;
2021/01/12 03:06:53;;;;;;;42.3;22.5;;;;;;;-9.02;79.9043;98548.45;;;;
2021/01/12 03:16:51;;;;;;;36;19.9;;;;;;;-9.14;80.08691;98529.02;;;;
2021/01/12 03:26:46;;;;;;;36.2;18.1;;;;;;;-9.07;79.07617;98506.41;;;;
2021/01/12 03:36:43;;;;;;;34.9;21.6;;;;;;;-9.23;79.24121;98494.38;;;;
2021/01/12 03:46:40;;;;;;;44.5;21.5;;;;;;;-9.44;79.93359;98482.11;;;;
2021/01/12 03:56:36;;;;;;;40.3;19.7;;;;;;;-9.35;81.00391;98465.38;;;;
2021/01/12 04:06:33;;;;;;;49.1;24;;;;;;;-9.37;79.84863;98459.52;;;;
2021/01/12 04:16:30;;;;;;;42.8;23;;;;;;;-9.45;79.30664;98451.81;;;;
2021/01/12 04:26:26;;;;;;;37.1;19.2;;;;;;;-9.64;81.5166;98430.7;;;;
2021/01/12 04:36:23;;;;;;;36.1;18.1;;;;;;;-9.63;81.25;98407.07;;;;
2021/01/12 04:46:20;;;;;;;38.9;21.1;;;;;;;-9.75;81.11035;98406.73;;;;
2021/01/12 04:56:16;;;;;;;37.6;20.9;;;;;;;-9.64;81.11914;98383.77;;;;
2021/01/12 05:06:13;;;;;;;43.7;24.8;;;;;;;-9.63;82.30176;98360.13;;;;
2021/01/12 05:16:09;;;;;;;57.1;33.5;;;;;;;-9.48;81.33301;98376.55;;;;
2021/01/12 05:26:06;;;;;;;76.2;40.8;;;;;;;-9.58;81.00195;98355.19;;;;
2021/01/12 05:36:02;;;;;;;83.4;39.7;;;;;;;-9.51;80.4248;98357.85;;;;
2021/01/12 05:45:59;;;;;;;69.2;38.6;;;;;;;-9.5;80.63965;98346.41;;;;
2021/01/12 05:55:55;;;;;;;73.2;41;;;;;;;-9.52;80.94824;98330.15;;;;
2021/01/12 06:05:52;;;;;;;112.2;55.2;;;;;;;-9.5;81.44727;98308.09;;;;
2021/01/12 06:15:48;;;;;;;69.2;31.7;;;;;;;-9.31;81.65625;98288.4;;;;
2021/01/12 06:25:45;;;;;;;51.7;28.4;;;;;;;-9.06;81.6084;98286.99;;;;
2021/01/12 06:35:42;;;;;;;57.5;27.7;;;;;;;-8.94;80.5459;98269.79;;;;
2021/01/12 06:45:38;;;;;;;88.2;45.9;;;;;;;-8.96;79.97168;98271.8;;;;
2021/01/12 06:55:35;;;;;;;100;51.4;;;;;;;-9.22;80.9209;98259.36;;;;
2021/01/12 07:05:32;;;;;;;66.8;38.4;;;;;;;-8.92;81.42969;98256.56;;;;
2021/01/12 07:15:28;;;;;;;18.5;11.7;;;;;;;-8.3;80.72168;98251.23;;;;
2021/01/12 07:25:25;;;;;;;37;23.3;;;;;;;-7.89;80.16504;98233.61;;;;
2021/01/12 07:35:22;;;;;;;58;32.2;;;;;;;-7.65;79.52148;98225.19;;;;
2021/01/12 07:45:22;;;;;;;45.6;26.4;;;;;;;-7.32;79.33203;98206.03;;;;
2021/01/12 07:55:16;;;;;;;40.6;24.3;;;;;;;-6.99;79.73047;98195.52;;;;
2021/01/12 08:05:13;;;;;;;44;27.4;;;;;;;-6.59;79.4707;98181.27;;;;
2021/01/12 08:15:10;;;;;;;38.9;24.3;;;;;;;-6.06;79.31055;98162.64;;;;
2021/01/12 08:25:07;;;;;;;61.7;36.5;;;;;;;-5.57;80.65234;98157.41;;;;
2021/01/12 08:35:04;;;;;;;29;16.6;;;;;;;-4.54;72.61719;98137.3;;;;
2021/01/12 08:45:01;;;;;;;17;6.9;;;;;;;-3.53;69.25781;98123.24;;;;
2021/01/12 08:54:58;;;;;;;21.2;9.2;;;;;;;-2.96;66.5918;98114.52;;;;
2021/01/12 09:04:55;;;;;;;15;11.9;;;;;;;-2.5;65.83008;98103.03;;;;
2021/01/12 09:14:52;;;;;;;13.5;10.3;;;;;;;-2;64.28027;98095.2;;;;
2021/01/12 09:24:50;;;;;;;17.5;10.7;;;;;;;-1.61;61.42188;98086.33;;;;
2021/01/12 09:34:47;;;;;;;13;7.2;;;;;;;-1.18;63.0918;98071.61;;;;
2021/01/12 09:44:45;;;;;;;12.9;10.6;;;;;;;-0.69;60.85938;98069.8;;;;
2021/01/12 09:54:45;;;;;;;40.2;27;;;;;;;-0.12;63.96777;98051.59;;;;
2021/01/12 10:04:40;;;;;;;80.1;56.6;;;;;;;0.58;67.83203;98034.63;;;;
2021/01/12 10:14:38;;;;;;;82.2;62.4;;;;;;;1.08;68.19922;98023.47;;;;
2021/01/12 10:24:35;;;;;;;80.6;62.7;;;;;;;1.43;63.94629;98002.31;;;;
2021/01/12 10:34:33;;;;;;;69.6;54.3;;;;;;;1.4;63.83203;97974.44;;;;
2021/01/12 10:44:31;;;;;;;58.9;41.4;;;;;;;1.63;60.61328;97961.73;;;;
2021/01/12 10:54:29;;;;;;;13.4;9.4;;;;;;;1.98;58.97461;97943.91;;;;
2021/01/12 11:04:27;;;;;;;11.1;7.8;;;;;;;2.05;55.36719;97924.25;;;;
2021/01/12 11:14:25;;;;;;;10.9;6.9;;;;;;;2.01;56.93164;97900.08;;;;
2021/01/12 11:24:24;;;;;;;9.3;6.4;;;;;;;2.01;55.43066;97895.53;;;;
2021/01/12 11:34:21;;;;;;;8.4;6.8;;;;;;;1.98;55.74805;97868.7;;;;
2021/01/12 11:44:22;;;;;;;8.7;7.3;;;;;;;2.25;55.24902;97857.74;;;;
2021/01/12 11:54:16;;;;;;;8.9;4.5;;;;;;;2.47;55.0332;97845.67;;;;
2021/01/12 12:04:14;;;;;;;7.8;4;;;;;;;2.45;53.88184;97831.06;;;;
2021/01/12 12:14:12;;;;;;;13.8;6.4;;;;;;;2.52;55.02734;97815.61;;;;
2021/01/12 12:24:10;;;;;;;7.9;5.1;;;;;;;2.52;54.19141;97787.16;;;;
2021/01/12 12:34:08;;;;;;;9.1;5.5;;;;;;;2.6;54.69238;97785.78;;;;
2021/01/12 12:44:06;;;;;;;10.8;5.8;;;;;;;2.46;54.20605;97763.53;;;;
2021/01/12 12:54:06;;;;;;;10.3;4.8;;;;;;;2.49;53.9541;97761.11;;;;
2021/01/12 13:04:02;;;;;;;8.5;5.7;;;;;;;2.49;54.31055;97754.99;;;;
2021/01/12 13:14:00;;;;;;;11.6;6;;;;;;;2.45;54.69531;97735.34;;;;
2021/01/12 13:23:59;;;;;;;25.9;6.3;;;;;;;2.4;55.0459;97730.84;;;;
2021/01/12 13:33:56;;;;;;;12;6.7;;;;;;;2.29;54.0957;97718.67;;;;
2021/01/12 13:43:54;;;;;;;10.9;6.9;;;;;;;2.14;53.89941;97689.53;;;;
2021/01/12 13:53:52;;;;;;;8.8;7;;;;;;;2.07;54.41309;97689.05;;;;
2021/01/12 14:03:50;;;;;;;12.3;7.2;;;;;;;2.03;54.44141;97669.4;;;;
2021/01/12 14:13:48;;;;;;;33.3;23.3;;;;;;;1.89;54.71289;97661.23;;;;
2021/01/12 14:23:46;;;;;;;13.4;7.5;;;;;;;1.87;54.7207;97654.62;;;;
2021/01/12 14:33:45;;;;;;;28.2;15.9;;;;;;;1.82;55.10449;97628.86;;;;
2021/01/12 14:43:42;;;;;;;13.9;11.2;;;;;;;1.77;55.58691;97620.91;;;;
2021/01/12 14:53:40;;;;;;;19.8;13.5;;;;;;;1.71;55.71289;97619.36;;;;
2021/01/12 15:03:38;;;;;;;117.4;65.4;;;;;;;1.6;56.70996;97606.42;;;;
2021/01/12 15:13:36;;;;;;;18;15.7;;;;;;;1.55;57.15918;97603.78;;;;
2021/01/12 15:23:34;;;;;;;57.4;34;;;;;;;1.47;57.99219;97594.52;;;;
2021/01/12 15:33:32;;;;;;;34.6;17.3;;;;;;;1.48;59.18359;97596.92;;;;
2021/01/12 15:43:30;;;;;;;35.1;21.3;;;;;;;1.56;61.03711;97579.63;;;;
2021/01/12 15:53:27;;;;;;;10.3;8.3;;;;;;;1.74;61.68359;97572.86;;;;
2021/01/12 16:03:25;;;;;;;36.2;16.7;;;;;;;1.77;61.78809;97570.45;;;;
2021/01/12 16:13:23;;;;;;;20;11.9;;;;;;;1.71;62.35645;97560.92;;;;
2021/01/12 16:23:25;;;;;;;29.6;23.2;;;;;;;1.58;62.75977;97572.17;;;;
2021/01/12 16:33:24;;;;;;;34.4;19.9;;;;;;;1.54;63.47559;97571.13;;;;
2021/01/12 16:43:17;;;;;;;17.3;10.9;;;;;;;1.53;63.31836;97572.18;;;;
2021/01/12 16:53:15;;;;;;;17.7;13.1;;;;;;;1.42;63.87695;97575.98;;;;
2021/01/12 17:03:13;;;;;;;16.2;11.7;;;;;;;1.28;63.58008;97567.02;;;;
2021/01/12 17:13:11;;;;;;;19.7;11.7;;;;;;;1.14;65;97556.2;;;;
2021/01/12 17:23:09;;;;;;;14.1;10;;;;;;;1.01;65.73438;97560.2;;;;
2021/01/12 17:33:07;;;;;;;17.7;13.6;;;;;;;0.89;66.97656;97554.42;;;;
2021/01/12 17:43:04;;;;;;;16.3;10.8;;;;;;;0.73;67.4043;97554.75;;;;
2021/01/12 17:53:02;;;;;;;15.2;12.9;;;;;;;0.54;67.55176;97535.95;;;;
2021/01/12 18:03:00;;;;;;;18;9.8;;;;;;;0.5;68.16309;97534.9;;;;
2021/01/12 18:12:58;;;;;;;9.9;7.7;;;;;;;0.52;67.7793;97532.8;;;;
2021/01/12 18:22:56;;;;;;;16.8;8.8;;;;;;;0.48;67.88477;97529.88;;;;
2021/01/12 18:32:53;;;;;;;14.6;10.2;;;;;;;0.43;68.08594;97526.43;;;;
2021/01/12 18:42:51;;;;;;;15.3;10;;;;;;;0.39;68.2793;97517.42;;;;
2021/01/12 18:52:49;;;;;;;14.2;8.5;;;;;;;0.42;68.42676;97506.28;;;;
2021/01/12 19:02:48;;;;;;;13.2;9.3;;;;;;;0.41;68.55762;97510.02;;;;
2021/01/12 19:12:44;;;;;;;14.5;9.3;;;;;;;0.42;68.26074;97500.98;;;;
2021/01/12 19:22:42;;;;;;;17.9;10;;;;;;;0.45;67.61328;97505.77;;;;
2021/01/12 19:32:40;;;;;;;14.1;7.8;;;;;;;0.46;67.8916;97486.13;;;;
2021/01/12 19:42:38;;;;;;;11.5;8;;;;;;;0.48;67.5957;97494.63;;;;
2021/01/12 19:52:35;;;;;;;12.6;8.7;;;;;;;0.46;67.95898;97508.14;;;;
2021/01/12 20:02:33;;;;;;;10.9;6.7;;;;;;;0.42;68.27246;97506.28;;;;
2021/01/12 20:12:31;;;;;;;9.8;7.3;;;;;;;0.4;68.63281;97500.47;;;;
2021/01/12 20:22:28;;;;;;;13.4;8.5;;;;;;;0.41;68.34766;97504.72;;;;
2021/01/12 20:32:26;;;;;;;13.5;10;;;;;;;0.42;68.31641;97503.63;;;;
2021/01/12 20:42:29;;;;;;;17.5;10.2;;;;;;;0.4;68.87695;97511.87;;;;
2021/01/12 20:52:22;;;;;;;18.9;13.2;;;;;;;0.38;70.29688;97505.25;;;;
2021/01/12 21:02:22;;;;;;;23.8;13.2;;;;;;;0.18;73.90332;97521.16;;;;
2021/01/12 21:12:17;;;;;;;22.3;13.2;;;;;;;-0.02;76.76563;97525.42;;;;
2021/01/12 21:22:15;;;;;;;18.8;12.9;;;;;;;-0.23;79.83887;97523.83;;;;
2021/01/12 21:32:13;;;;;;;14.3;11;;;;;;;-0.46;82.38867;97513.75;;;;
2021/01/12 21:42:11;;;;;;;16.4;11.9;;;;;;;-0.51;83.31055;97513.73;;;;
2021/01/12 21:52:08;;;;;;;14.5;10.9;;;;;;;-0.69;83.89063;97512.38;;;;
2021/01/12 22:02:06;;;;;;;19.2;13;;;;;;;-0.64;84.32715;97503.66;;;;
2021/01/12 22:12:04;;;;;;;14.1;10.5;;;;;;;-0.78;85.44043;97506.02;;;;
2021/01/12 22:22:02;;;;;;;19.3;9.9;;;;;;;-0.77;85.68262;97504.16;;;;
2021/01/12 22:31:59;;;;;;;13.6;11.9;;;;;;;-0.73;85.45996;97494.66;;;;
2021/01/12 22:41:57;;;;;;;18.7;11.1;;;;;;;-0.78;85.7666;97505.22;;;;
2021/01/12 22:51:55;;;;;;;15.2;10.6;;;;;;;-0.82;85.69629;97497;;;;
2021/01/12 23:01:52;;;;;;;15.7;12;;;;;;;-0.8;85.91699;97488.82;;;;
2021/01/12 23:11:50;;;;;;;26.9;16;;;;;;;-0.75;86.26758;97494.11;;;;
2021/01/12 23:21:48;;;;;;;15.2;11.9;;;;;;;-0.74;86.41211;97490.41;;;;
2021/01/12 23:31:45;;;;;;;15;11.5;;;;;;;-0.71;86.48242;97497.83;;;;
2021/01/12 23:41:43;;;;;;;22.4;13;;;;;;;-0.74;87.18945;97496.5;;;;
2021/01/12 23:51:41;;;;;;;17.2;10.6;;;;;;;-0.74;86.70703;97490.41;;;;
